sensor_id;sensor_type;location;lat;lon;timestamp;P1;durP1;ratioP1;P2;durP2;ratioP2
36751;SDS011;22718;49.494;7.036;2022-10-23T00:01:31;7.80;;;1.60;;
36751;SDS011;22718;49.494;7.036;2022-10-23T00:04:11;10.35;;;2.08;;
36751;SDS011;22718;49.494;7.036;2022-10-23T00:06:39;11.55;;;1.63;;
36751;SDS011;22718;49.494;7.036;2022-10-23T00:09:07;8.38;;;1.27;;
36751;SDS011;22718;49.494;7.036;2022-10-23T00:11:34;7.95;;;1.65;;
36751;SDS011;22718;49.494;7.036;2022-10-23T00:14:01;6.03;;;0.98;;
36751;SDS011;22718;49.494;7.036;2022-10-23T00:16:28;5.90;;;1.15;;
36751;SDS011;22718;49.494;7.036;2022-10-23T00:18:55;6.18;;;1.02;;
36751;SDS011;22718;49.494;7.036;2022-10-23T00:21:21;4.45;;;0.80;;
36751;SDS011;22718;49.494;7.036;2022-10-23T00:23:47;9.95;;;1.35;;
36751;SDS011;22718;49.494;7.036;2022-10-23T00:26:12;9.98;;;1.50;;
36751;SDS011;22718;49.494;7.036;2022-10-23T00:28:40;9.40;;;1.70;;
36751;SDS011;22718;49.494;7.036;2022-10-23T00:31:06;7.88;;;1.02;;
36751;SDS011;22718;49.494;7.036;2022-10-23T00:33:32;4.13;;;1.00;;
36751;SDS011;22718;49.494;7.036;2022-10-23T00:35:58;6.40;;;1.48;;
36751;SDS011;22718;49.494;7.036;2022-10-23T00:38:24;7.70;;;1.08;;
36751;SDS011;22718;49.494;7.036;2022-10-23T00:40:50;7.88;;;1.30;;
36751;SDS011;22718;49.494;7.036;2022-10-23T00:43:20;10.57;;;2.40;;
36751;SDS011;22718;49.494;7.036;2022-10-23T00:45:47;10.52;;;1.48;;
36751;SDS011;22718;49.494;7.036;2022-10-23T00:48:13;5.80;;;0.95;;
36751;SDS011;22718;49.494;7.036;2022-10-23T00:50:39;8.18;;;0.98;;
36751;SDS011;22718;49.494;7.036;2022-10-23T00:53:06;5.55;;;1.00;;
36751;SDS011;22718;49.494;7.036;2022-10-23T00:55:33;11.52;;;1.00;;
36751;SDS011;22718;49.494;7.036;2022-10-23T00:58:00;9.10;;;1.38;;
36751;SDS011;22718;49.494;7.036;2022-10-23T01:00:30;14.60;;;1.65;;
36751;SDS011;22718;49.494;7.036;2022-10-23T01:03:07;4.57;;;1.33;;
36751;SDS011;22718;49.494;7.036;2022-10-23T01:06:20;5.43;;;1.17;;
36751;SDS011;22718;49.494;7.036;2022-10-23T01:11:38;6.38;;;0.95;;
36751;SDS011;22718;49.494;7.036;2022-10-23T01:27:13;11.40;;;1.05;;
36751;SDS011;22718;49.494;7.036;2022-10-23T01:32:57;8.13;;;1.10;;
36751;SDS011;22718;49.494;7.036;2022-10-23T01:35:33;11.38;;;1.30;;
36751;SDS011;22718;49.494;7.036;2022-10-23T01:38:24;4.40;;;0.77;;
36751;SDS011;22718;49.494;7.036;2022-10-23T01:40:59;12.00;;;1.20;;
36751;SDS011;22718;49.494;7.036;2022-10-23T01:43:39;9.05;;;1.27;;
36751;SDS011;22718;49.494;7.036;2022-10-23T01:46:10;11.35;;;1.02;;
36751;SDS011;22718;49.494;7.036;2022-10-23T01:48:39;3.95;;;0.93;;
36751;SDS011;22718;49.494;7.036;2022-10-23T01:51:07;5.28;;;1.30;;
36751;SDS011;22718;49.494;7.036;2022-10-23T01:53:36;5.68;;;1.55;;
36751;SDS011;22718;49.494;7.036;2022-10-23T01:56:10;6.68;;;1.00;;
36751;SDS011;22718;49.494;7.036;2022-10-23T01:58:38;5.60;;;1.17;;
36751;SDS011;22718;49.494;7.036;2022-10-23T02:01:11;8.38;;;1.02;;
36751;SDS011;22718;49.494;7.036;2022-10-23T02:03:39;8.82;;;1.88;;
36751;SDS011;22718;49.494;7.036;2022-10-23T02:06:07;4.85;;;0.88;;
36751;SDS011;22718;49.494;7.036;2022-10-23T02:08:33;20.25;;;3.38;;
36751;SDS011;22718;49.494;7.036;2022-10-23T02:11:09;7.03;;;1.73;;
36751;SDS011;22718;49.494;7.036;2022-10-23T02:16:15;10.98;;;1.52;;
36751;SDS011;22718;49.494;7.036;2022-10-23T02:21:31;5.72;;;1.00;;
36751;SDS011;22718;49.494;7.036;2022-10-23T02:24:27;5.43;;;1.33;;
36751;SDS011;22718;49.494;7.036;2022-10-23T02:27:03;5.07;;;0.93;;
36751;SDS011;22718;49.494;7.036;2022-10-23T02:29:37;7.13;;;1.25;;
36751;SDS011;22718;49.494;7.036;2022-10-23T02:32:08;7.45;;;1.05;;
36751;SDS011;22718;49.494;7.036;2022-10-23T02:34:36;3.40;;;0.70;;
36751;SDS011;22718;49.494;7.036;2022-10-23T02:37:01;5.43;;;0.60;;
36751;SDS011;22718;49.494;7.036;2022-10-23T02:39:27;3.30;;;1.08;;
36751;SDS011;22718;49.494;7.036;2022-10-23T02:50:09;3.55;;;0.60;;
36751;SDS011;22718;49.494;7.036;2022-10-23T02:58:28;7.80;;;0.93;;
36751;SDS011;22718;49.494;7.036;2022-10-23T03:01:12;7.00;;;1.38;;
36751;SDS011;22718;49.494;7.036;2022-10-23T03:03:41;6.63;;;1.08;;
36751;SDS011;22718;49.494;7.036;2022-10-23T03:06:17;32.10;;;1.80;;
36751;SDS011;22718;49.494;7.036;2022-10-23T03:08:44;7.97;;;0.80;;
36751;SDS011;22718;49.494;7.036;2022-10-23T03:11:16;5.18;;;0.93;;
36751;SDS011;22718;49.494;7.036;2022-10-23T03:13:42;7.10;;;0.85;;
36751;SDS011;22718;49.494;7.036;2022-10-23T03:16:07;4.50;;;0.63;;
36751;SDS011;22718;49.494;7.036;2022-10-23T03:18:33;5.07;;;1.23;;
36751;SDS011;22718;49.494;7.036;2022-10-23T03:20:59;9.10;;;0.90;;
36751;SDS011;22718;49.494;7.036;2022-10-23T03:23:25;8.13;;;0.63;;
36751;SDS011;22718;49.494;7.036;2022-10-23T03:25:51;11.15;;;1.40;;
36751;SDS011;22718;49.494;7.036;2022-10-23T03:28:17;5.40;;;0.60;;
36751;SDS011;22718;49.494;7.036;2022-10-23T03:30:43;5.13;;;1.35;;
36751;SDS011;22718;49.494;7.036;2022-10-23T03:33:08;11.45;;;1.30;;
36751;SDS011;22718;49.494;7.036;2022-10-23T03:35:34;3.67;;;0.63;;
36751;SDS011;22718;49.494;7.036;2022-10-23T03:38:00;3.58;;;0.90;;
36751;SDS011;22718;49.494;7.036;2022-10-23T03:40:25;7.40;;;0.68;;
36751;SDS011;22718;49.494;7.036;2022-10-23T03:42:51;10.30;;;0.90;;
36751;SDS011;22718;49.494;7.036;2022-10-23T03:45:16;7.90;;;1.35;;
36751;SDS011;22718;49.494;7.036;2022-10-23T03:47:42;5.75;;;0.63;;
36751;SDS011;22718;49.494;7.036;2022-10-23T03:50:09;4.82;;;0.80;;
36751;SDS011;22718;49.494;7.036;2022-10-23T03:52:35;8.88;;;0.50;;
36751;SDS011;22718;49.494;7.036;2022-10-23T03:55:01;8.02;;;1.38;;
36751;SDS011;22718;49.494;7.036;2022-10-23T03:57:27;7.40;;;0.95;;
36751;SDS011;22718;49.494;7.036;2022-10-23T03:59:53;6.95;;;1.52;;
36751;SDS011;22718;49.494;7.036;2022-10-23T04:02:18;3.20;;;0.60;;
36751;SDS011;22718;49.494;7.036;2022-10-23T04:04:44;10.35;;;0.90;;
36751;SDS011;22718;49.494;7.036;2022-10-23T04:07:10;4.15;;;0.70;;
36751;SDS011;22718;49.494;7.036;2022-10-23T04:09:35;8.52;;;1.17;;
36751;SDS011;22718;49.494;7.036;2022-10-23T04:12:01;3.58;;;0.80;;
36751;SDS011;22718;49.494;7.036;2022-10-23T04:14:26;15.15;;;0.98;;
36751;SDS011;22718;49.494;7.036;2022-10-23T04:16:52;8.60;;;0.60;;
36751;SDS011;22718;49.494;7.036;2022-10-23T04:19:18;2.50;;;0.80;;
36751;SDS011;22718;49.494;7.036;2022-10-23T04:21:43;8.85;;;0.68;;
36751;SDS011;22718;49.494;7.036;2022-10-23T04:24:09;10.07;;;0.68;;
36751;SDS011;22718;49.494;7.036;2022-10-23T04:26:35;8.88;;;0.88;;
36751;SDS011;22718;49.494;7.036;2022-10-23T04:29:00;4.40;;;0.50;;
36751;SDS011;22718;49.494;7.036;2022-10-23T04:31:26;3.83;;;0.80;;
36751;SDS011;22718;49.494;7.036;2022-10-23T04:33:52;4.38;;;0.77;;
36751;SDS011;22718;49.494;7.036;2022-10-23T04:36:17;2.30;;;0.55;;
36751;SDS011;22718;49.494;7.036;2022-10-23T04:38:43;4.90;;;0.90;;
36751;SDS011;22718;49.494;7.036;2022-10-23T04:41:09;2.72;;;0.82;;
36751;SDS011;22718;49.494;7.036;2022-10-23T04:43:35;7.90;;;0.65;;
36751;SDS011;22718;49.494;7.036;2022-10-23T04:46:00;6.82;;;0.73;;
36751;SDS011;22718;49.494;7.036;2022-10-23T04:48:26;2.03;;;1.08;;
36751;SDS011;22718;49.494;7.036;2022-10-23T04:50:55;4.50;;;0.60;;
36751;SDS011;22718;49.494;7.036;2022-10-23T04:53:22;5.72;;;0.90;;
36751;SDS011;22718;49.494;7.036;2022-10-23T04:55:52;8.57;;;0.90;;
36751;SDS011;22718;49.494;7.036;2022-10-23T04:58:19;3.58;;;0.60;;
36751;SDS011;22718;49.494;7.036;2022-10-23T05:00:46;4.93;;;1.00;;
36751;SDS011;22718;49.494;7.036;2022-10-23T05:03:12;4.35;;;1.10;;
36751;SDS011;22718;49.494;7.036;2022-10-23T05:05:39;6.57;;;0.88;;
36751;SDS011;22718;49.494;7.036;2022-10-23T05:08:05;6.40;;;0.73;;
36751;SDS011;22718;49.494;7.036;2022-10-23T05:10:31;3.50;;;0.60;;
36751;SDS011;22718;49.494;7.036;2022-10-23T05:12:56;2.58;;;0.60;;
36751;SDS011;22718;49.494;7.036;2022-10-23T05:15:23;2.03;;;0.60;;
36751;SDS011;22718;49.494;7.036;2022-10-23T05:17:49;7.53;;;2.15;;
36751;SDS011;22718;49.494;7.036;2022-10-23T05:20:20;6.00;;;0.50;;
36751;SDS011;22718;49.494;7.036;2022-10-23T05:22:49;4.20;;;0.65;;
36751;SDS011;22718;49.494;7.036;2022-10-23T05:25:18;6.75;;;0.50;;
36751;SDS011;22718;49.494;7.036;2022-10-23T05:27:44;5.10;;;0.60;;
36751;SDS011;22718;49.494;7.036;2022-10-23T05:30:09;3.80;;;0.80;;
36751;SDS011;22718;49.494;7.036;2022-10-23T05:32:35;5.03;;;0.88;;
36751;SDS011;22718;49.494;7.036;2022-10-23T05:35:05;6.18;;;0.90;;
36751;SDS011;22718;49.494;7.036;2022-10-23T05:37:33;6.53;;;1.00;;
36751;SDS011;22718;49.494;7.036;2022-10-23T05:40:02;4.50;;;1.05;;
36751;SDS011;22718;49.494;7.036;2022-10-23T05:42:28;7.25;;;0.60;;
36751;SDS011;22718;49.494;7.036;2022-10-23T05:44:53;3.92;;;0.70;;
36751;SDS011;22718;49.494;7.036;2022-10-23T05:47:19;4.72;;;0.63;;
36751;SDS011;22718;49.494;7.036;2022-10-23T05:49:45;3.97;;;0.70;;
36751;SDS011;22718;49.494;7.036;2022-10-23T05:52:11;2.00;;;0.60;;
36751;SDS011;22718;49.494;7.036;2022-10-23T05:54:36;3.28;;;0.85;;
36751;SDS011;22718;49.494;7.036;2022-10-23T05:57:02;6.35;;;0.75;;
36751;SDS011;22718;49.494;7.036;2022-10-23T05:59:28;3.92;;;0.82;;
36751;SDS011;22718;49.494;7.036;2022-10-23T06:01:54;5.80;;;0.70;;
36751;SDS011;22718;49.494;7.036;2022-10-23T06:04:19;6.78;;;0.90;;
36751;SDS011;22718;49.494;7.036;2022-10-23T06:06:45;4.05;;;1.45;;
36751;SDS011;22718;49.494;7.036;2022-10-23T06:09:11;5.10;;;1.00;;
36751;SDS011;22718;49.494;7.036;2022-10-23T06:11:38;5.82;;;1.00;;
36751;SDS011;22718;49.494;7.036;2022-10-23T06:14:03;6.35;;;1.00;;
36751;SDS011;22718;49.494;7.036;2022-10-23T06:16:31;2.95;;;0.70;;
36751;SDS011;22718;49.494;7.036;2022-10-23T06:18:56;4.10;;;0.60;;
36751;SDS011;22718;49.494;7.036;2022-10-23T06:21:22;4.18;;;0.65;;
36751;SDS011;22718;49.494;7.036;2022-10-23T06:23:48;5.40;;;1.00;;
36751;SDS011;22718;49.494;7.036;2022-10-23T06:26:14;5.57;;;0.77;;
36751;SDS011;22718;49.494;7.036;2022-10-23T06:28:41;5.40;;;0.80;;
36751;SDS011;22718;49.494;7.036;2022-10-23T06:31:08;3.28;;;0.80;;
36751;SDS011;22718;49.494;7.036;2022-10-23T06:33:35;5.85;;;0.88;;
36751;SDS011;22718;49.494;7.036;2022-10-23T06:36:01;3.92;;;0.80;;
36751;SDS011;22718;49.494;7.036;2022-10-23T06:38:29;5.82;;;0.60;;
36751;SDS011;22718;49.494;7.036;2022-10-23T06:41:00;4.50;;;0.63;;
36751;SDS011;22718;49.494;7.036;2022-10-23T06:43:26;3.92;;;0.98;;
36751;SDS011;22718;49.494;7.036;2022-10-23T06:45:52;28.33;;;2.45;;
36751;SDS011;22718;49.494;7.036;2022-10-23T06:48:18;4.00;;;0.80;;
36751;SDS011;22718;49.494;7.036;2022-10-23T06:50:43;5.60;;;0.77;;
36751;SDS011;22718;49.494;7.036;2022-10-23T06:53:09;5.70;;;0.93;;
36751;SDS011;22718;49.494;7.036;2022-10-23T06:55:36;3.40;;;1.02;;
36751;SDS011;22718;49.494;7.036;2022-10-23T06:58:03;4.93;;;0.75;;
36751;SDS011;22718;49.494;7.036;2022-10-23T07:00:34;4.95;;;0.95;;
36751;SDS011;22718;49.494;7.036;2022-10-23T07:03:03;11.57;;;1.08;;
36751;SDS011;22718;49.494;7.036;2022-10-23T07:05:35;4.15;;;1.70;;
36751;SDS011;22718;49.494;7.036;2022-10-23T07:08:00;4.72;;;1.20;;
36751;SDS011;22718;49.494;7.036;2022-10-23T07:10:28;4.65;;;1.08;;
36751;SDS011;22718;49.494;7.036;2022-10-23T07:12:54;3.78;;;1.17;;
36751;SDS011;22718;49.494;7.036;2022-10-23T07:17:51;3.38;;;0.88;;
36751;SDS011;22718;49.494;7.036;2022-10-23T07:20:17;3.88;;;0.57;;
36751;SDS011;22718;49.494;7.036;2022-10-23T07:22:42;3.58;;;0.60;;
36751;SDS011;22718;49.494;7.036;2022-10-23T07:25:08;4.85;;;0.60;;
36751;SDS011;22718;49.494;7.036;2022-10-23T07:27:37;4.05;;;0.63;;
36751;SDS011;22718;49.494;7.036;2022-10-23T07:30:03;5.70;;;0.65;;
36751;SDS011;22718;49.494;7.036;2022-10-23T07:32:29;2.42;;;0.73;;
36751;SDS011;22718;49.494;7.036;2022-10-23T07:34:54;2.58;;;0.70;;
36751;SDS011;22718;49.494;7.036;2022-10-23T07:37:20;3.30;;;0.45;;
36751;SDS011;22718;49.494;7.036;2022-10-23T07:39:46;4.30;;;0.40;;
36751;SDS011;22718;49.494;7.036;2022-10-23T07:42:11;5.70;;;0.70;;
36751;SDS011;22718;49.494;7.036;2022-10-23T07:44:37;5.10;;;1.80;;
36751;SDS011;22718;49.494;7.036;2022-10-23T07:47:03;5.38;;;1.50;;
36751;SDS011;22718;49.494;7.036;2022-10-23T07:49:28;3.33;;;0.40;;
36751;SDS011;22718;49.494;7.036;2022-10-23T07:51:54;3.20;;;1.10;;
36751;SDS011;22718;49.494;7.036;2022-10-23T07:54:22;3.85;;;0.50;;
36751;SDS011;22718;49.494;7.036;2022-10-23T07:56:48;2.30;;;0.57;;
36751;SDS011;22718;49.494;7.036;2022-10-23T07:59:16;4.18;;;0.80;;
36751;SDS011;22718;49.494;7.036;2022-10-23T08:01:42;5.88;;;0.60;;
36751;SDS011;22718;49.494;7.036;2022-10-23T08:04:08;3.28;;;0.93;;
36751;SDS011;22718;49.494;7.036;2022-10-23T08:06:34;4.45;;;0.50;;
36751;SDS011;22718;49.494;7.036;2022-10-23T08:09:00;2.13;;;0.40;;
36751;SDS011;22718;49.494;7.036;2022-10-23T08:11:26;6.32;;;0.50;;
36751;SDS011;22718;49.494;7.036;2022-10-23T08:13:55;1.00;;;0.40;;
36751;SDS011;22718;49.494;7.036;2022-10-23T08:16:22;6.18;;;0.38;;
36751;SDS011;22718;49.494;7.036;2022-10-23T08:18:48;4.25;;;0.40;;
36751;SDS011;22718;49.494;7.036;2022-10-23T08:21:15;2.60;;;0.40;;
36751;SDS011;22718;49.494;7.036;2022-10-23T08:23:41;1.58;;;0.50;;
36751;SDS011;22718;49.494;7.036;2022-10-23T08:26:08;7.47;;;0.70;;
36751;SDS011;22718;49.494;7.036;2022-10-23T08:28:34;23.90;;;0.70;;
36751;SDS011;22718;49.494;7.036;2022-10-23T08:31:07;10.00;;;1.45;;
36751;SDS011;22718;49.494;7.036;2022-10-23T08:33:35;8.82;;;1.88;;
36751;SDS011;22718;49.494;7.036;2022-10-23T08:36:00;8.43;;;1.13;;
36751;SDS011;22718;49.494;7.036;2022-10-23T08:38:26;5.53;;;0.90;;
36751;SDS011;22718;49.494;7.036;2022-10-23T08:40:52;4.22;;;0.80;;
36751;SDS011;22718;49.494;7.036;2022-10-23T08:43:19;5.57;;;0.85;;
36751;SDS011;22718;49.494;7.036;2022-10-23T08:46:15;13.27;;;1.10;;
36751;SDS011;22718;49.494;7.036;2022-10-23T08:48:45;3.15;;;0.85;;
36751;SDS011;22718;49.494;7.036;2022-10-23T08:51:16;6.82;;;1.00;;
36751;SDS011;22718;49.494;7.036;2022-10-23T08:53:45;9.80;;;1.33;;
36751;SDS011;22718;49.494;7.036;2022-10-23T08:56:21;7.68;;;0.60;;
36751;SDS011;22718;49.494;7.036;2022-10-23T09:04:33;5.40;;;1.13;;
36751;SDS011;22718;49.494;7.036;2022-10-23T09:07:15;2.83;;;0.40;;
36751;SDS011;22718;49.494;7.036;2022-10-23T09:10:22;3.10;;;0.50;;
36751;SDS011;22718;49.494;7.036;2022-10-23T09:13:59;3.60;;;0.52;;
36751;SDS011;22718;49.494;7.036;2022-10-23T09:19:16;11.88;;;0.63;;
36751;SDS011;22718;49.494;7.036;2022-10-23T09:21:43;3.58;;;0.70;;
36751;SDS011;22718;49.494;7.036;2022-10-23T09:24:14;2.05;;;0.68;;
36751;SDS011;22718;49.494;7.036;2022-10-23T09:26:44;9.90;;;1.23;;
36751;SDS011;22718;49.494;7.036;2022-10-23T09:31:52;5.65;;;0.50;;
36751;SDS011;22718;49.494;7.036;2022-10-23T09:34:27;5.55;;;0.40;;
36751;SDS011;22718;49.494;7.036;2022-10-23T09:36:55;2.55;;;0.30;;
36751;SDS011;22718;49.494;7.036;2022-10-23T09:39:27;6.68;;;0.70;;
36751;SDS011;22718;49.494;7.036;2022-10-23T09:41:55;5.38;;;0.68;;
36751;SDS011;22718;49.494;7.036;2022-10-23T09:44:22;1.95;;;0.50;;
36751;SDS011;22718;49.494;7.036;2022-10-23T09:46:53;5.63;;;0.57;;
36751;SDS011;22718;49.494;7.036;2022-10-23T09:52:35;3.30;;;0.40;;
36751;SDS011;22718;49.494;7.036;2022-10-23T09:54:58;4.55;;;0.60;;
36751;SDS011;22718;49.494;7.036;2022-10-23T09:57:39;5.75;;;0.75;;
36751;SDS011;22718;49.494;7.036;2022-10-23T10:02:38;7.63;;;0.50;;
36751;SDS011;22718;49.494;7.036;2022-10-23T10:05:22;3.33;;;0.40;;
36751;SDS011;22718;49.494;7.036;2022-10-23T10:07:57;4.32;;;0.70;;
36751;SDS011;22718;49.494;7.036;2022-10-23T10:10:37;1.75;;;0.50;;
36751;SDS011;22718;49.494;7.036;2022-10-23T10:16:15;3.08;;;0.60;;
36751;SDS011;22718;49.494;7.036;2022-10-23T10:18:46;5.75;;;0.88;;
36751;SDS011;22718;49.494;7.036;2022-10-23T10:24:05;4.88;;;0.85;;
36751;SDS011;22718;49.494;7.036;2022-10-23T10:26:51;7.68;;;0.55;;
36751;SDS011;22718;49.494;7.036;2022-10-23T10:29:35;4.22;;;0.47;;
36751;SDS011;22718;49.494;7.036;2022-10-23T10:38:03;2.13;;;0.43;;
36751;SDS011;22718;49.494;7.036;2022-10-23T10:40:40;1.27;;;0.40;;
36751;SDS011;22718;49.494;7.036;2022-10-23T10:46:04;19.80;;;0.88;;
36751;SDS011;22718;49.494;7.036;2022-10-23T10:48:57;4.93;;;0.40;;
36751;SDS011;22718;49.494;7.036;2022-10-23T10:51:28;2.08;;;0.68;;
36751;SDS011;22718;49.494;7.036;2022-10-23T10:56:36;4.80;;;0.82;;
36751;SDS011;22718;49.494;7.036;2022-10-23T10:59:13;3.67;;;0.50;;
36751;SDS011;22718;49.494;7.036;2022-10-23T11:04:56;2.58;;;0.98;;
36751;SDS011;22718;49.494;7.036;2022-10-23T11:07:51;3.75;;;0.52;;
36751;SDS011;22718;49.494;7.036;2022-10-23T11:10:19;5.43;;;0.70;;
36751;SDS011;22718;49.494;7.036;2022-10-23T11:12:46;11.10;;;0.82;;
36751;SDS011;22718;49.494;7.036;2022-10-23T11:15:13;5.93;;;0.40;;
36751;SDS011;22718;49.494;7.036;2022-10-23T11:17:43;2.88;;;0.40;;
36751;SDS011;22718;49.494;7.036;2022-10-23T11:20:15;2.70;;;0.50;;
36751;SDS011;22718;49.494;7.036;2022-10-23T11:23:08;9.65;;;1.17;;
36751;SDS011;22718;49.494;7.036;2022-10-23T11:28:46;2.45;;;0.60;;
36751;SDS011;22718;49.494;7.036;2022-10-23T11:37:04;5.00;;;0.40;;
36751;SDS011;22718;49.494;7.036;2022-10-23T11:39:31;3.92;;;0.82;;
36751;SDS011;22718;49.494;7.036;2022-10-23T11:42:44;5.07;;;0.43;;
36751;SDS011;22718;49.494;7.036;2022-10-23T11:44:55;11.00;;;0.70;;
36751;SDS011;22718;49.494;7.036;2022-10-23T11:47:37;4.55;;;0.40;;
36751;SDS011;22718;49.494;7.036;2022-10-23T11:52:52;6.57;;;0.63;;
36751;SDS011;22718;49.494;7.036;2022-10-23T11:55:21;5.13;;;0.60;;
36751;SDS011;22718;49.494;7.036;2022-10-23T11:58:09;6.85;;;0.52;;
36751;SDS011;22718;49.494;7.036;2022-10-23T12:00:50;4.00;;;0.55;;
36751;SDS011;22718;49.494;7.036;2022-10-23T12:03:21;4.45;;;0.50;;
36751;SDS011;22718;49.494;7.036;2022-10-23T12:05:58;12.15;;;1.05;;
36751;SDS011;22718;49.494;7.036;2022-10-23T12:08:27;3.20;;;0.95;;
36751;SDS011;22718;49.494;7.036;2022-10-23T12:10:56;6.47;;;0.95;;
36751;SDS011;22718;49.494;7.036;2022-10-23T12:13:27;6.53;;;0.88;;
36751;SDS011;22718;49.494;7.036;2022-10-23T12:15:53;2.58;;;0.57;;
36751;SDS011;22718;49.494;7.036;2022-10-23T12:18:19;6.43;;;0.60;;
36751;SDS011;22718;49.494;7.036;2022-10-23T12:20:53;12.18;;;1.08;;
36751;SDS011;22718;49.494;7.036;2022-10-23T12:32:03;5.32;;;1.10;;
36751;SDS011;22718;49.494;7.036;2022-10-23T12:37:01;10.65;;;0.80;;
36751;SDS011;22718;49.494;7.036;2022-10-23T12:39:31;16.42;;;2.10;;
36751;SDS011;22718;49.494;7.036;2022-10-23T12:42:00;7.03;;;1.42;;
36751;SDS011;22718;49.494;7.036;2022-10-23T12:44:26;8.60;;;0.68;;
36751;SDS011;22718;49.494;7.036;2022-10-23T12:46:56;11.23;;;1.17;;
36751;SDS011;22718;49.494;7.036;2022-10-23T12:49:27;14.15;;;1.00;;
36751;SDS011;22718;49.494;7.036;2022-10-23T12:52:00;7.40;;;0.80;;
36751;SDS011;22718;49.494;7.036;2022-10-23T12:54:38;6.47;;;0.88;;
36751;SDS011;22718;49.494;7.036;2022-10-23T12:57:39;7.03;;;1.13;;
36751;SDS011;22718;49.494;7.036;2022-10-23T13:00:08;6.75;;;0.65;;
36751;SDS011;22718;49.494;7.036;2022-10-23T13:02:35;12.15;;;1.55;;
36751;SDS011;22718;49.494;7.036;2022-10-23T13:05:01;7.00;;;1.60;;
36751;SDS011;22718;49.494;7.036;2022-10-23T13:07:30;8.85;;;1.85;;
36751;SDS011;22718;49.494;7.036;2022-10-23T13:10:01;15.90;;;2.28;;
36751;SDS011;22718;49.494;7.036;2022-10-23T13:12:28;4.10;;;0.70;;
36751;SDS011;22718;49.494;7.036;2022-10-23T13:15:01;5.63;;;0.97;;
36751;SDS011;22718;49.494;7.036;2022-10-23T13:18:00;10.20;;;0.88;;
36751;SDS011;22718;49.494;7.036;2022-10-23T13:20:27;6.07;;;0.90;;
36751;SDS011;22718;49.494;7.036;2022-10-23T13:23:09;9.63;;;0.70;;
36751;SDS011;22718;49.494;7.036;2022-10-23T13:25:41;11.70;;;1.02;;
36751;SDS011;22718;49.494;7.036;2022-10-23T13:30:36;10.02;;;1.38;;
36751;SDS011;22718;49.494;7.036;2022-10-23T13:36:19;10.18;;;1.30;;
36751;SDS011;22718;49.494;7.036;2022-10-23T13:38:38;8.85;;;1.15;;
36751;SDS011;22718;49.494;7.036;2022-10-23T13:41:11;7.80;;;1.30;;
36751;SDS011;22718;49.494;7.036;2022-10-23T13:43:39;13.25;;;2.00;;
36751;SDS011;22718;49.494;7.036;2022-10-23T13:46:10;7.40;;;1.90;;
36751;SDS011;22718;49.494;7.036;2022-10-23T13:48:41;13.85;;;1.73;;
36751;SDS011;22718;49.494;7.036;2022-10-23T13:51:20;16.50;;;1.77;;
36751;SDS011;22718;49.494;7.036;2022-10-23T13:53:47;13.93;;;1.98;;
36751;SDS011;22718;49.494;7.036;2022-10-23T13:56:15;13.00;;;1.25;;
36751;SDS011;22718;49.494;7.036;2022-10-23T13:58:42;24.27;;;1.65;;
36751;SDS011;22718;49.494;7.036;2022-10-23T14:03:53;9.20;;;1.30;;
36751;SDS011;22718;49.494;7.036;2022-10-23T14:06:20;9.82;;;2.05;;
36751;SDS011;22718;49.494;7.036;2022-10-23T14:08:46;10.18;;;1.67;;
36751;SDS011;22718;49.494;7.036;2022-10-23T14:11:12;15.52;;;2.55;;
36751;SDS011;22718;49.494;7.036;2022-10-23T14:13:39;10.43;;;2.00;;
36751;SDS011;22718;49.494;7.036;2022-10-23T14:16:05;19.15;;;2.65;;
36751;SDS011;22718;49.494;7.036;2022-10-23T14:18:32;15.20;;;1.90;;
36751;SDS011;22718;49.494;7.036;2022-10-23T14:20:59;14.05;;;2.03;;
36751;SDS011;22718;49.494;7.036;2022-10-23T14:23:25;18.10;;;2.75;;
36751;SDS011;22718;49.494;7.036;2022-10-23T14:25:51;11.95;;;1.75;;
36751;SDS011;22718;49.494;7.036;2022-10-23T14:28:16;23.60;;;3.00;;
36751;SDS011;22718;49.494;7.036;2022-10-23T14:30:42;12.00;;;1.98;;
36751;SDS011;22718;49.494;7.036;2022-10-23T14:33:08;8.30;;;1.52;;
36751;SDS011;22718;49.494;7.036;2022-10-23T14:35:37;12.48;;;1.83;;
36751;SDS011;22718;49.494;7.036;2022-10-23T14:38:04;16.08;;;1.98;;
36751;SDS011;22718;49.494;7.036;2022-10-23T14:40:30;14.00;;;2.05;;
36751;SDS011;22718;49.494;7.036;2022-10-23T14:42:55;12.00;;;3.30;;
36751;SDS011;22718;49.494;7.036;2022-10-23T14:45:21;17.33;;;2.72;;
36751;SDS011;22718;49.494;7.036;2022-10-23T14:47:48;18.17;;;2.92;;
36751;SDS011;22718;49.494;7.036;2022-10-23T14:50:13;10.52;;;1.70;;
36751;SDS011;22718;49.494;7.036;2022-10-23T14:52:40;11.57;;;1.83;;
36751;SDS011;22718;49.494;7.036;2022-10-23T14:55:05;20.83;;;2.15;;
36751;SDS011;22718;49.494;7.036;2022-10-23T14:57:31;24.50;;;3.15;;
36751;SDS011;22718;49.494;7.036;2022-10-23T14:59:57;21.90;;;3.25;;
36751;SDS011;22718;49.494;7.036;2022-10-23T15:02:23;14.43;;;2.67;;
36751;SDS011;22718;49.494;7.036;2022-10-23T15:04:48;16.35;;;1.48;;
36751;SDS011;22718;49.494;7.036;2022-10-23T15:07:14;15.40;;;1.92;;
36751;SDS011;22718;49.494;7.036;2022-10-23T15:09:40;12.30;;;2.80;;
36751;SDS011;22718;49.494;7.036;2022-10-23T15:12:05;11.63;;;2.33;;
36751;SDS011;22718;49.494;7.036;2022-10-23T15:14:32;13.70;;;2.30;;
36751;SDS011;22718;49.494;7.036;2022-10-23T15:16:58;23.15;;;2.58;;
36751;SDS011;22718;49.494;7.036;2022-10-23T15:19:24;20.70;;;2.03;;
36751;SDS011;22718;49.494;7.036;2022-10-23T15:21:49;24.73;;;2.45;;
36751;SDS011;22718;49.494;7.036;2022-10-23T15:24:16;16.50;;;1.98;;
36751;SDS011;22718;49.494;7.036;2022-10-23T15:26:44;17.92;;;2.22;;
36751;SDS011;22718;49.494;7.036;2022-10-23T15:29:10;21.23;;;3.28;;
36751;SDS011;22718;49.494;7.036;2022-10-23T15:34:02;16.27;;;2.63;;
36751;SDS011;22718;49.494;7.036;2022-10-23T15:36:29;10.98;;;1.45;;
36751;SDS011;22718;49.494;7.036;2022-10-23T15:38:54;17.02;;;2.58;;
36751;SDS011;22718;49.494;7.036;2022-10-23T15:41:27;12.18;;;2.88;;
36751;SDS011;22718;49.494;7.036;2022-10-23T15:43:57;28.77;;;2.47;;
36751;SDS011;22718;49.494;7.036;2022-10-23T15:46:24;21.88;;;2.50;;
36751;SDS011;22718;49.494;7.036;2022-10-23T15:48:50;18.80;;;2.40;;
36751;SDS011;22718;49.494;7.036;2022-10-23T15:51:15;16.50;;;2.88;;
36751;SDS011;22718;49.494;7.036;2022-10-23T15:53:41;16.30;;;3.25;;
36751;SDS011;22718;49.494;7.036;2022-10-23T15:56:07;12.93;;;2.22;;
36751;SDS011;22718;49.494;7.036;2022-10-23T15:58:32;16.75;;;2.05;;
36751;SDS011;22718;49.494;7.036;2022-10-23T16:01:00;21.88;;;2.67;;
36751;SDS011;22718;49.494;7.036;2022-10-23T16:03:30;20.08;;;2.22;;
36751;SDS011;22718;49.494;7.036;2022-10-23T16:05:57;20.67;;;2.85;;
36751;SDS011;22718;49.494;7.036;2022-10-23T16:08:23;16.45;;;2.10;;
36751;SDS011;22718;49.494;7.036;2022-10-23T16:10:50;23.08;;;3.55;;
36751;SDS011;22718;49.494;7.036;2022-10-23T16:13:15;14.43;;;2.97;;
36751;SDS011;22718;49.494;7.036;2022-10-23T16:15:41;26.55;;;3.53;;
36751;SDS011;22718;49.494;7.036;2022-10-23T16:18:07;13.05;;;3.38;;
36751;SDS011;22718;49.494;7.036;2022-10-23T16:20:33;19.73;;;2.85;;
36751;SDS011;22718;49.494;7.036;2022-10-23T16:22:58;19.08;;;3.45;;
36751;SDS011;22718;49.494;7.036;2022-10-23T16:25:24;18.20;;;3.05;;
36751;SDS011;22718;49.494;7.036;2022-10-23T16:27:50;20.27;;;2.58;;
36751;SDS011;22718;49.494;7.036;2022-10-23T16:30:15;16.70;;;2.80;;
36751;SDS011;22718;49.494;7.036;2022-10-23T16:32:41;17.73;;;2.17;;
36751;SDS011;22718;49.494;7.036;2022-10-23T16:35:07;21.17;;;2.65;;
36751;SDS011;22718;49.494;7.036;2022-10-23T16:37:33;19.92;;;2.15;;
36751;SDS011;22718;49.494;7.036;2022-10-23T16:39:59;21.08;;;2.17;;
36751;SDS011;22718;49.494;7.036;2022-10-23T16:42:26;17.65;;;1.88;;
36751;SDS011;22718;49.494;7.036;2022-10-23T16:44:52;25.48;;;3.20;;
36751;SDS011;22718;49.494;7.036;2022-10-23T16:47:18;22.13;;;3.20;;